sensor_id;sensor_type;location;lat;lon;timestamp;temperature;humidity
61201;DHT22;47065;52.898;6.992;2022-10-16T00:01:16;12.50;99.90
61201;DHT22;47065;52.898;6.992;2022-10-16T00:03:43;12.50;99.90
61201;DHT22;47065;52.898;6.992;2022-10-16T00:06:10;12.50;99.90
61201;DHT22;47065;52.898;6.992;2022-10-16T00:08:37;12.60;99.90
61201;DHT22;47065;52.898;6.992;2022-10-16T00:11:19;12.50;99.90
61201;DHT22;47065;52.898;6.992;2022-10-16T00:13:47;12.60;99.90
61201;DHT22;47065;52.898;6.992;2022-10-16T00:16:13;12.60;99.90
61201;DHT22;47065;52.898;6.992;2022-10-16T00:18:40;12.60;99.90
61201;DHT22;47065;52.898;6.992;2022-10-16T00:21:11;12.60;99.90
61201;DHT22;47065;52.898;6.992;2022-10-16T00:23:38;12.70;99.90
61201;DHT22;47065;52.898;6.992;2022-10-16T00:26:06;12.70;99.90
61201;DHT22;47065;52.898;6.992;2022-10-16T00:28:33;12.80;99.90
61201;DHT22;47065;52.898;6.992;2022-10-16T00:30:59;12.80;99.90
61201;DHT22;47065;52.898;6.992;2022-10-16T00:33:27;12.80;99.90
61201;DHT22;47065;52.898;6.992;2022-10-16T00:35:53;12.80;99.90
61201;DHT22;47065;52.898;6.992;2022-10-16T00:38:18;12.80;99.90
61201;DHT22;47065;52.898;6.992;2022-10-16T00:40:44;12.80;99.90
61201;DHT22;47065;52.898;6.992;2022-10-16T00:43:32;12.80;99.90
61201;DHT22;47065;52.898;6.992;2022-10-16T00:45:58;12.80;99.90
61201;DHT22;47065;52.898;6.992;2022-10-16T00:48:24;12.90;99.90
61201;DHT22;47065;52.898;6.992;2022-10-16T00:50:50;12.90;99.90
61201;DHT22;47065;52.898;6.992;2022-10-16T00:53:16;12.90;99.90
61201;DHT22;47065;52.898;6.992;2022-10-16T00:55:42;12.90;99.90
61201;DHT22;47065;52.898;6.992;2022-10-16T00:58:09;12.90;99.90
61201;DHT22;47065;52.898;6.992;2022-10-16T01:00:34;12.90;99.90
61201;DHT22;47065;52.898;6.992;2022-10-16T01:03:02;12.80;99.90
61201;DHT22;47065;52.898;6.992;2022-10-16T01:05:39;12.80;99.90
61201;DHT22;47065;52.898;6.992;2022-10-16T01:08:13;12.80;99.90
61201;DHT22;47065;52.898;6.992;2022-10-16T01:10:57;12.80;99.90
61201;DHT22;47065;52.898;6.992;2022-10-16T01:13:29;12.70;99.90
61201;DHT22;47065;52.898;6.992;2022-10-16T01:15:58;12.70;99.90
61201;DHT22;47065;52.898;6.992;2022-10-16T01:21:01;12.60;99.90
61201;DHT22;47065;52.898;6.992;2022-10-16T01:31:19;12.60;99.90
61201;DHT22;47065;52.898;6.992;2022-10-16T01:33:52;12.60;99.90
61201;DHT22;47065;52.898;6.992;2022-10-16T01:36:34;12.60;99.90
61201;DHT22;47065;52.898;6.992;2022-10-16T01:39:02;12.70;99.90
61201;DHT22;47065;52.898;6.992;2022-10-16T01:41:32;12.60;99.90
61201;DHT22;47065;52.898;6.992;2022-10-16T01:44:17;12.60;99.90
61201;DHT22;47065;52.898;6.992;2022-10-16T01:46:46;12.60;99.90
61201;DHT22;47065;52.898;6.992;2022-10-16T01:49:13;12.60;99.90
61201;DHT22;47065;52.898;6.992;2022-10-16T01:51:40;12.60;99.90
61201;DHT22;47065;52.898;6.992;2022-10-16T01:54:08;12.60;99.90
61201;DHT22;47065;52.898;6.992;2022-10-16T01:56:35;12.60;99.90
61201;DHT22;47065;52.898;6.992;2022-10-16T01:59:06;12.60;99.90
61201;DHT22;47065;52.898;6.992;2022-10-16T02:01:35;12.50;99.90
61201;DHT22;47065;52.898;6.992;2022-10-16T02:04:08;12.50;99.90
61201;DHT22;47065;52.898;6.992;2022-10-16T02:06:34;12.60;99.90
61201;DHT22;47065;52.898;6.992;2022-10-16T02:09:01;12.50;99.90
61201;DHT22;47065;52.898;6.992;2022-10-16T02:11:27;12.50;99.90
61201;DHT22;47065;52.898;6.992;2022-10-16T02:14:02;12.60;99.90
61201;DHT22;47065;52.898;6.992;2022-10-16T02:16:34;12.60;99.90
61201;DHT22;47065;52.898;6.992;2022-10-16T02:19:00;12.50;99.90
61201;DHT22;47065;52.898;6.992;2022-10-16T02:21:29;12.60;99.90
61201;DHT22;47065;52.898;6.992;2022-10-16T02:27:13;12.60;99.90
61201;DHT22;47065;52.898;6.992;2022-10-16T02:29:45;12.70;99.90
61201;DHT22;47065;52.898;6.992;2022-10-16T02:32:17;12.70;99.90
61201;DHT22;47065;52.898;6.992;2022-10-16T02:34:46;12.70;99.90
61201;DHT22;47065;52.898;6.992;2022-10-16T02:37:13;12.80;99.90
61201;DHT22;47065;52.898;6.992;2022-10-16T02:39:40;12.80;99.90
61201;DHT22;47065;52.898;6.992;2022-10-16T02:42:11;12.80;99.90
61201;DHT22;47065;52.898;6.992;2022-10-16T02:44:37;12.80;99.90
61201;DHT22;47065;52.898;6.992;2022-10-16T02:47:03;12.80;99.90
61201;DHT22;47065;52.898;6.992;2022-10-16T02:49:28;12.80;99.90
61201;DHT22;47065;52.898;6.992;2022-10-16T02:51:54;12.90;99.90
61201;DHT22;47065;52.898;6.992;2022-10-16T02:54:20;12.80;99.90
61201;DHT22;47065;52.898;6.992;2022-10-16T02:56:45;12.80;99.90
61201;DHT22;47065;52.898;6.992;2022-10-16T02:59:11;12.90;99.90
61201;DHT22;47065;52.898;6.992;2022-10-16T03:01:36;12.90;99.90
61201;DHT22;47065;52.898;6.992;2022-10-16T03:04:02;12.90;99.90
61201;DHT22;47065;52.898;6.992;2022-10-16T03:06:28;12.90;99.90
61201;DHT22;47065;52.898;6.992;2022-10-16T03:08:54;12.90;99.90
61201;DHT22;47065;52.898;6.992;2022-10-16T03:11:19;12.90;99.90
61201;DHT22;47065;52.898;6.992;2022-10-16T03:13:45;12.90;99.90
61201;DHT22;47065;52.898;6.992;2022-10-16T03:16:10;12.90;99.90
61201;DHT22;47065;52.898;6.992;2022-10-16T03:18:37;12.90;99.90
61201;DHT22;47065;52.898;6.992;2022-10-16T03:21:02;12.90;99.90
61201;DHT22;47065;52.898;6.992;2022-10-16T03:23:28;12.90;99.90
61201;DHT22;47065;52.898;6.992;2022-10-16T03:25:54;12.90;99.90
61201;DHT22;47065;52.898;6.992;2022-10-16T03:28:19;13.00;99.90
61201;DHT22;47065;52.898;6.992;2022-10-16T03:30:45;13.00;99.90
61201;DHT22;47065;52.898;6.992;2022-10-16T03:33:11;13.00;99.90
61201;DHT22;47065;52.898;6.992;2022-10-16T03:35:36;13.00;99.90
61201;DHT22;47065;52.898;6.992;2022-10-16T03:38:02;13.00;99.90
61201;DHT22;47065;52.898;6.992;2022-10-16T03:40:28;13.00;99.90
61201;DHT22;47065;52.898;6.992;2022-10-16T03:42:53;13.00;99.90
61201;DHT22;47065;52.898;6.992;2022-10-16T03:45:23;13.10;99.90
61201;DHT22;47065;52.898;6.992;2022-10-16T03:47:48;13.10;99.90
61201;DHT22;47065;52.898;6.992;2022-10-16T03:50:14;13.00;99.90
61201;DHT22;47065;52.898;6.992;2022-10-16T03:52:40;13.10;99.90
61201;DHT22;47065;52.898;6.992;2022-10-16T03:55:06;13.00;99.90
61201;DHT22;47065;52.898;6.992;2022-10-16T03:57:32;13.10;99.90
61201;DHT22;47065;52.898;6.992;2022-10-16T03:59:57;13.00;99.90
61201;DHT22;47065;52.898;6.992;2022-10-16T04:02:23;13.00;99.90
61201;DHT22;47065;52.898;6.992;2022-10-16T04:04:49;13.00;99.90
61201;DHT22;47065;52.898;6.992;2022-10-16T04:07:15;13.00;99.90
61201;DHT22;47065;52.898;6.992;2022-10-16T04:09:40;13.00;99.90
61201;DHT22;47065;52.898;6.992;2022-10-16T04:12:07;13.00;99.90
61201;DHT22;47065;52.898;6.992;2022-10-16T04:14:32;13.00;99.90
61201;DHT22;47065;52.898;6.992;2022-10-16T04:16:58;13.00;99.90
61201;DHT22;47065;52.898;6.992;2022-10-16T04:19:24;13.00;99.90
61201;DHT22;47065;52.898;6.992;2022-10-16T04:21:49;13.00;99.90
61201;DHT22;47065;52.898;6.992;2022-10-16T04:24:15;13.00;99.90
61201;DHT22;47065;52.898;6.992;2022-10-16T04:26:41;13.00;99.90
61201;DHT22;47065;52.898;6.992;2022-10-16T04:29:06;12.90;99.90
61201;DHT22;47065;52.898;6.992;2022-10-16T04:31:32;13.00;99.90
61201;DHT22;47065;52.898;6.992;2022-10-16T04:33:58;12.90;99.90
61201;DHT22;47065;52.898;6.992;2022-10-16T04:36:24;12.90;99.90
61201;DHT22;47065;52.898;6.992;2022-10-16T04:38:50;12.80;99.90
61201;DHT22;47065;52.898;6.992;2022-10-16T04:41:15;12.90;99.90
61201;DHT22;47065;52.898;6.992;2022-10-16T04:43:41;12.90;99.90
61201;DHT22;47065;52.898;6.992;2022-10-16T04:46:07;12.80;99.90
61201;DHT22;47065;52.898;6.992;2022-10-16T04:48:33;12.80;99.90
61201;DHT22;47065;52.898;6.992;2022-10-16T04:50:59;12.80;99.90
61201;DHT22;47065;52.898;6.992;2022-10-16T04:53:24;12.70;99.90
61201;DHT22;47065;52.898;6.992;2022-10-16T04:55:50;12.80;99.90
61201;DHT22;47065;52.898;6.992;2022-10-16T04:58:16;12.80;99.90
61201;DHT22;47065;52.898;6.992;2022-10-16T05:00:42;12.70;99.90
61201;DHT22;47065;52.898;6.992;2022-10-16T05:03:07;12.80;99.90
61201;DHT22;47065;52.898;6.992;2022-10-16T05:05:34;12.80;99.90
61201;DHT22;47065;52.898;6.992;2022-10-16T05:08:00;12.80;99.90
61201;DHT22;47065;52.898;6.992;2022-10-16T05:10:26;12.80;99.90
61201;DHT22;47065;52.898;6.992;2022-10-16T05:12:52;12.80;99.90
61201;DHT22;47065;52.898;6.992;2022-10-16T05:15:18;12.80;99.90
61201;DHT22;47065;52.898;6.992;2022-10-16T05:17:44;12.80;99.90
61201;DHT22;47065;52.898;6.992;2022-10-16T05:20:09;12.80;99.90
61201;DHT22;47065;52.898;6.992;2022-10-16T05:22:35;12.80;99.90
61201;DHT22;47065;52.898;6.992;2022-10-16T05:25:01;12.90;99.90
61201;DHT22;47065;52.898;6.992;2022-10-16T05:27:26;12.80;99.90
61201;DHT22;47065;52.898;6.992;2022-10-16T05:29:52;12.80;99.90
61201;DHT22;47065;52.898;6.992;2022-10-16T05:32:18;12.80;99.90
61201;DHT22;47065;52.898;6.992;2022-10-16T05:34:44;12.80;99.90
61201;DHT22;47065;52.898;6.992;2022-10-16T05:37:11;12.80;99.90
61201;DHT22;47065;52.898;6.992;2022-10-16T05:39:37;12.80;99.90
61201;DHT22;47065;52.898;6.992;2022-10-16T05:42:04;12.90;99.90
61201;DHT22;47065;52.898;6.992;2022-10-16T05:44:30;12.80;99.90
61201;DHT22;47065;52.898;6.992;2022-10-16T05:46:55;12.80;99.90
61201;DHT22;47065;52.898;6.992;2022-10-16T05:49:21;12.80;99.90
61201;DHT22;47065;52.898;6.992;2022-10-16T05:51:47;12.80;99.90
61201;DHT22;47065;52.898;6.992;2022-10-16T05:54:12;12.80;99.90
61201;DHT22;47065;52.898;6.992;2022-10-16T05:56:38;12.70;99.90
61201;DHT22;47065;52.898;6.992;2022-10-16T05:59:04;12.70;99.90
61201;DHT22;47065;52.898;6.992;2022-10-16T06:01:30;12.70;99.90
61201;DHT22;47065;52.898;6.992;2022-10-16T06:03:56;12.70;99.90
61201;DHT22;47065;52.898;6.992;2022-10-16T06:06:25;12.70;99.90
61201;DHT22;47065;52.898;6.992;2022-10-16T06:08:52;12.70;99.90
61201;DHT22;47065;52.898;6.992;2022-10-16T06:11:23;12.70;99.90
61201;DHT22;47065;52.898;6.992;2022-10-16T06:13:50;12.70;99.90
61201;DHT22;47065;52.898;6.992;2022-10-16T06:16:15;12.70;99.90
61201;DHT22;47065;52.898;6.992;2022-10-16T06:18:41;12.70;99.90
61201;DHT22;47065;52.898;6.992;2022-10-16T06:21:14;12.70;99.90
61201;DHT22;47065;52.898;6.992;2022-10-16T06:23:41;12.70;99.90
61201;DHT22;47065;52.898;6.992;2022-10-16T06:26:12;12.70;99.90
61201;DHT22;47065;52.898;6.992;2022-10-16T06:28:38;12.80;99.90
61201;DHT22;47065;52.898;6.992;2022-10-16T06:31:06;12.70;99.90
61201;DHT22;47065;52.898;6.992;2022-10-16T06:33:32;12.70;99.90
61201;DHT22;47065;52.898;6.992;2022-10-16T06:36:06;12.80;99.90
61201;DHT22;47065;52.898;6.992;2022-10-16T06:38:34;12.80;99.90
61201;DHT22;47065;52.898;6.992;2022-10-16T06:41:00;12.90;99.90
61201;DHT22;47065;52.898;6.992;2022-10-16T06:43:26;12.90;99.90
61201;DHT22;47065;52.898;6.992;2022-10-16T06:45:56;12.90;99.90
61201;DHT22;47065;52.898;6.992;2022-10-16T06:48:23;12.90;99.90
61201;DHT22;47065;52.898;6.992;2022-10-16T06:53:29;13.00;99.90
61201;DHT22;47065;52.898;6.992;2022-10-16T06:55:55;13.00;99.90
61201;DHT22;47065;52.898;6.992;2022-10-16T06:58:21;13.00;99.90
61201;DHT22;47065;52.898;6.992;2022-10-16T07:00:47;13.10;99.90
61201;DHT22;47065;52.898;6.992;2022-10-16T07:03:13;13.10;99.90
61201;DHT22;47065;52.898;6.992;2022-10-16T07:05:42;13.10;99.90
61201;DHT22;47065;52.898;6.992;2022-10-16T07:08:08;13.10;99.90
61201;DHT22;47065;52.898;6.992;2022-10-16T07:10:35;13.20;99.90
61201;DHT22;47065;52.898;6.992;2022-10-16T07:13:01;13.20;99.90
61201;DHT22;47065;52.898;6.992;2022-10-16T07:15:26;13.20;99.90
61201;DHT22;47065;52.898;6.992;2022-10-16T07:17:52;13.20;99.90
61201;DHT22;47065;52.898;6.992;2022-10-16T07:20:18;13.30;99.90
61201;DHT22;47065;52.898;6.992;2022-10-16T07:22:44;13.30;99.90
61201;DHT22;47065;52.898;6.992;2022-10-16T07:25:10;13.30;99.90
61201;DHT22;47065;52.898;6.992;2022-10-16T07:27:36;13.30;99.90
61201;DHT22;47065;52.898;6.992;2022-10-16T07:30:03;13.30;99.90
61201;DHT22;47065;52.898;6.992;2022-10-16T07:32:29;13.40;99.90
61201;DHT22;47065;52.898;6.992;2022-10-16T07:34:55;13.40;99.90
61201;DHT22;47065;52.898;6.992;2022-10-16T07:37:21;13.50;99.90
61201;DHT22;47065;52.898;6.992;2022-10-16T07:39:47;13.40;99.90
61201;DHT22;47065;52.898;6.992;2022-10-16T07:42:15;13.50;99.90
61201;DHT22;47065;52.898;6.992;2022-10-16T07:44:41;13.50;99.90
61201;DHT22;47065;52.898;6.992;2022-10-16T07:47:07;13.50;99.90
61201;DHT22;47065;52.898;6.992;2022-10-16T07:49:32;13.60;99.90
61201;DHT22;47065;52.898;6.992;2022-10-16T07:51:58;13.60;99.90
61201;DHT22;47065;52.898;6.992;2022-10-16T07:54:24;13.60;99.90
61201;DHT22;47065;52.898;6.992;2022-10-16T07:56:49;13.70;99.90
61201;DHT22;47065;52.898;6.992;2022-10-16T07:59:15;13.70;99.90
61201;DHT22;47065;52.898;6.992;2022-10-16T08:01:40;13.80;99.90
61201;DHT22;47065;52.898;6.992;2022-10-16T08:04:08;13.80;99.90
61201;DHT22;47065;52.898;6.992;2022-10-16T08:06:38;13.80;99.90
61201;DHT22;47065;52.898;6.992;2022-10-16T08:09:06;13.80;99.90
61201;DHT22;47065;52.898;6.992;2022-10-16T08:11:32;13.90;99.90
61201;DHT22;47065;52.898;6.992;2022-10-16T08:13:57;13.90;99.90
61201;DHT22;47065;52.898;6.992;2022-10-16T08:16:23;13.90;99.90
61201;DHT22;47065;52.898;6.992;2022-10-16T08:18:49;14.00;99.90
61201;DHT22;47065;52.898;6.992;2022-10-16T08:21:18;14.00;99.90
61201;DHT22;47065;52.898;6.992;2022-10-16T08:23:44;14.10;99.90
61201;DHT22;47065;52.898;6.992;2022-10-16T08:26:10;14.20;99.90
61201;DHT22;47065;52.898;6.992;2022-10-16T08:28:36;14.20;99.90
61201;DHT22;47065;52.898;6.992;2022-10-16T08:31:14;14.30;99.90
61201;DHT22;47065;52.898;6.992;2022-10-16T08:33:42;14.40;99.90
61201;DHT22;47065;52.898;6.992;2022-10-16T08:36:10;14.50;99.90
61201;DHT22;47065;52.898;6.992;2022-10-16T08:38:36;14.60;99.90
61201;DHT22;47065;52.898;6.992;2022-10-16T08:44:16;14.90;99.90
61201;DHT22;47065;52.898;6.992;2022-10-16T08:50:14;15.10;99.90
61201;DHT22;47065;52.898;6.992;2022-10-16T08:52:42;15.20;99.90
61201;DHT22;47065;52.898;6.992;2022-10-16T08:58:01;15.40;99.90
61201;DHT22;47065;52.898;6.992;2022-10-16T09:00:27;15.50;99.90
61201;DHT22;47065;52.898;6.992;2022-10-16T09:03:03;15.60;99.90
61201;DHT22;47065;52.898;6.992;2022-10-16T09:08:56;15.90;99.90
61201;DHT22;47065;52.898;6.992;2022-10-16T09:19:55;16.70;99.90
61201;DHT22;47065;52.898;6.992;2022-10-16T09:22:26;16.70;99.90
61201;DHT22;47065;52.898;6.992;2022-10-16T09:24:55;16.70;99.90
61201;DHT22;47065;52.898;6.992;2022-10-16T09:27:24;16.70;99.90
61201;DHT22;47065;52.898;6.992;2022-10-16T09:29:55;16.80;99.90
61201;DHT22;47065;52.898;6.992;2022-10-16T09:32:22;16.80;99.90
61201;DHT22;47065;52.898;6.992;2022-10-16T09:34:53;16.90;99.90
61201;DHT22;47065;52.898;6.992;2022-10-16T09:37:22;17.10;99.90
61201;DHT22;47065;52.898;6.992;2022-10-16T09:39:53;17.10;99.90
61201;DHT22;47065;52.898;6.992;2022-10-16T09:42:30;17.20;99.90
61201;DHT22;47065;52.898;6.992;2022-10-16T09:44:56;17.30;99.90
61201;DHT22;47065;52.898;6.992;2022-10-16T09:47:30;17.40;99.90
61201;DHT22;47065;52.898;6.992;2022-10-16T09:50:01;17.50;99.90
61201;DHT22;47065;52.898;6.992;2022-10-16T09:52:30;17.50;99.90
61201;DHT22;47065;52.898;6.992;2022-10-16T09:55:01;17.70;99.90
61201;DHT22;47065;52.898;6.992;2022-10-16T09:57:28;17.70;99.90
61201;DHT22;47065;52.898;6.992;2022-10-16T09:59:56;17.80;99.90
61201;DHT22;47065;52.898;6.992;2022-10-16T10:02:36;17.90;99.90
61201;DHT22;47065;52.898;6.992;2022-10-16T10:05:06;18.10;99.90
61201;DHT22;47065;52.898;6.992;2022-10-16T10:07:43;18.10;99.90
61201;DHT22;47065;52.898;6.992;2022-10-16T10:10:21;18.20;99.90
61201;DHT22;47065;52.898;6.992;2022-10-16T10:12:47;18.30;99.90
61201;DHT22;47065;52.898;6.992;2022-10-16T10:15:14;18.30;99.90
61201;DHT22;47065;52.898;6.992;2022-10-16T10:17:55;18.40;99.90
61201;DHT22;47065;52.898;6.992;2022-10-16T10:20:32;18.40;99.90
61201;DHT22;47065;52.898;6.992;2022-10-16T10:23:19;18.50;99.90
61201;DHT22;47065;52.898;6.992;2022-10-16T10:26:16;18.50;99.90
61201;DHT22;47065;52.898;6.992;2022-10-16T10:36:59;19.00;96.40
61201;DHT22;47065;52.898;6.992;2022-10-16T10:39:39;18.90;98.10
61201;DHT22;47065;52.898;6.992;2022-10-16T10:48:06;18.80;95.40
61201;DHT22;47065;52.898;6.992;2022-10-16T10:50:57;18.70;95.90
61201;DHT22;47065;52.898;6.992;2022-10-16T10:59:26;18.60;93.00
61201;DHT22;47065;52.898;6.992;2022-10-16T11:04:40;18.40;92.90
61201;DHT22;47065;52.898;6.992;2022-10-16T11:07:41;18.40;91.60
61201;DHT22;47065;52.898;6.992;2022-10-16T11:10:15;18.50;91.30
61201;DHT22;47065;52.898;6.992;2022-10-16T11:12:42;18.50;94.00
61201;DHT22;47065;52.898;6.992;2022-10-16T11:15:23;18.60;91.40
61201;DHT22;47065;52.898;6.992;2022-10-16T11:18:04;18.60;94.00
61201;DHT22;47065;52.898;6.992;2022-10-16T11:20:45;18.70;90.00
61201;DHT22;47065;52.898;6.992;2022-10-16T11:26:11;18.30;90.30
61201;DHT22;47065;52.898;6.992;2022-10-16T11:28:53;18.10;88.70
61201;DHT22;47065;52.898;6.992;2022-10-16T11:31:29;17.90;90.00
61201;DHT22;47065;52.898;6.992;2022-10-16T11:34:22;17.90;90.40
61201;DHT22;47065;52.898;6.992;2022-10-16T11:37:02;18.00;87.40
61201;DHT22;47065;52.898;6.992;2022-10-16T11:39:31;18.20;89.70
61201;DHT22;47065;52.898;6.992;2022-10-16T11:44:52;18.40;88.00
61201;DHT22;47065;52.898;6.992;2022-10-16T11:47:28;18.50;85.10
61201;DHT22;47065;52.898;6.992;2022-10-16T11:55:39;18.80;86.50
61201;DHT22;47065;52.898;6.992;2022-10-16T11:58:16;18.90;86.20
61201;DHT22;47065;52.898;6.992;2022-10-16T12:01:22;19.00;84.20
61201;DHT22;47065;52.898;6.992;2022-10-16T12:09:05;19.00;84.70
61201;DHT22;47065;52.898;6.992;2022-10-16T12:11:37;19.00;83.90
61201;DHT22;47065;52.898;6.992;2022-10-16T12:19:20;19.20;84.70
61201;DHT22;47065;52.898;6.992;2022-10-16T12:21:46;19.20;84.10
61201;DHT22;47065;52.898;6.992;2022-10-16T12:24:36;19.10;85.20
61201;DHT22;47065;52.898;6.992;2022-10-16T12:27:04;19.20;85.60
61201;DHT22;47065;52.898;6.992;2022-10-16T12:29:39;19.20;86.30
61201;DHT22;47065;52.898;6.992;2022-10-16T12:32:39;19.30;82.10
61201;DHT22;47065;52.898;6.992;2022-10-16T12:35:19;19.20;83.40
61201;DHT22;47065;52.898;6.992;2022-10-16T12:37:45;19.10;82.70
61201;DHT22;47065;52.898;6.992;2022-10-16T12:40:15;18.90;81.70
61201;DHT22;47065;52.898;6.992;2022-10-16T12:42:41;18.70;81.30
61201;DHT22;47065;52.898;6.992;2022-10-16T12:45:29;18.60;81.30
61201;DHT22;47065;52.898;6.992;2022-10-16T12:47:56;18.40;82.10
61201;DHT22;47065;52.898;6.992;2022-10-16T12:50:29;18.30;84.30
61201;DHT22;47065;52.898;6.992;2022-10-16T12:52:56;18.30;84.70
61201;DHT22;47065;52.898;6.992;2022-10-16T12:55:23;18.30;84.80
61201;DHT22;47065;52.898;6.992;2022-10-16T13:00:57;18.20;86.60
61201;DHT22;47065;52.898;6.992;2022-10-16T13:06:37;18.20;84.40
61201;DHT22;47065;52.898;6.992;2022-10-16T13:12:09;18.40;85.30
61201;DHT22;47065;52.898;6.992;2022-10-16T13:20:27;18.60;84.10
61201;DHT22;47065;52.898;6.992;2022-10-16T13:28:38;18.80;85.10
61201;DHT22;47065;52.898;6.992;2022-10-16T13:31:05;18.90;84.80
61201;DHT22;47065;52.898;6.992;2022-10-16T13:33:42;18.90;85.80
61201;DHT22;47065;52.898;6.992;2022-10-16T13:36:43;18.90;81.10
61201;DHT22;47065;52.898;6.992;2022-10-16T13:39:21;19.00;79.20
61201;DHT22;47065;52.898;6.992;2022-10-16T13:42:00;18.90;80.30
61201;DHT22;47065;52.898;6.992;2022-10-16T13:44:26;18.90;80.80
61201;DHT22;47065;52.898;6.992;2022-10-16T13:47:00;18.90;81.80
61201;DHT22;47065;52.898;6.992;2022-10-16T13:49:26;18.90;81.10
61201;DHT22;47065;52.898;6.992;2022-10-16T13:51:57;18.90;80.20
61201;DHT22;47065;52.898;6.992;2022-10-16T13:54:24;18.90;82.30
61201;DHT22;47065;52.898;6.992;2022-10-16T13:56:50;19.00;82.70
61201;DHT22;47065;52.898;6.992;2022-10-16T13:59:24;19.00;80.90
61201;DHT22;47065;52.898;6.992;2022-10-16T14:01:53;19.00;80.60
61201;DHT22;47065;52.898;6.992;2022-10-16T14:04:20;18.80;80.50
61201;DHT22;47065;52.898;6.992;2022-10-16T14:06:49;18.70;82.50
61201;DHT22;47065;52.898;6.992;2022-10-16T14:09:25;18.60;82.70
61201;DHT22;47065;52.898;6.992;2022-10-16T14:12:07;18.50;83.30
61201;DHT22;47065;52.898;6.992;2022-10-16T14:14:48;18.50;83.90
61201;DHT22;47065;52.898;6.992;2022-10-16T14:19:57;18.30;84.40
61201;DHT22;47065;52.898;6.992;2022-10-16T14:22:39;18.30;85.00
61201;DHT22;47065;52.898;6.992;2022-10-16T14:25:25;18.20;85.60
61201;DHT22;47065;52.898;6.992;2022-10-16T14:28:02;18.20;85.70
61201;DHT22;47065;52.898;6.992;2022-10-16T14:30:29;18.10;86.30
61201;DHT22;47065;52.898;6.992;2022-10-16T14:33:03;18.00;86.60
61201;DHT22;47065;52.898;6.992;2022-10-16T14:35:35;18.00;87.00
61201;DHT22;47065;52.898;6.992;2022-10-16T14:38:03;18.00;87.60
61201;DHT22;47065;52.898;6.992;2022-10-16T14:40:32;17.90;87.80
61201;DHT22;47065;52.898;6.992;2022-10-16T14:42:59;17.90;87.90
61201;DHT22;47065;52.898;6.992;2022-10-16T14:45:28;17.90;87.40
61201;DHT22;47065;52.898;6.992;2022-10-16T14:47:57;17.80;87.00
61201;DHT22;47065;52.898;6.992;2022-10-16T14:50:23;17.80;84.80
61201;DHT22;47065;52.898;6.992;2022-10-16T14:52:49;17.70;84.30
61201;DHT22;47065;52.898;6.992;2022-10-16T14:55:15;17.70;85.00
61201;DHT22;47065;52.898;6.992;2022-10-16T14:57:42;17.60;84.90
61201;DHT22;47065;52.898;6.992;2022-10-16T15:02:39;17.50;85.50
61201;DHT22;47065;52.898;6.992;2022-10-16T15:07:38;17.30;85.50
61201;DHT22;47065;52.898;6.992;2022-10-16T15:10:04;17.30;85.80
61201;DHT22;47065;52.898;6.992;2022-10-16T15:12:30;17.30;86.40
61201;DHT22;47065;52.898;6.992;2022-10-16T15:14:56;17.20;87.00
61201;DHT22;47065;52.898;6.992;2022-10-16T15:17:21;17.20;87.30
61201;DHT22;47065;52.898;6.992;2022-10-16T15:19:47;17.10;88.00
61201;DHT22;47065;52.898;6.992;2022-10-16T15:22:12;17.10;88.80
61201;DHT22;47065;52.898;6.992;2022-10-16T15:24:38;17.00;89.20
61201;DHT22;47065;52.898;6.992;2022-10-16T15:27:03;17.00;90.00
61201;DHT22;47065;52.898;6.992;2022-10-16T15:29:29;17.00;90.20
61201;DHT22;47065;52.898;6.992;2022-10-16T15:31:55;16.90;90.30
61201;DHT22;47065;52.898;6.992;2022-10-16T15:34:20;16.80;90.40
61201;DHT22;47065;52.898;6.992;2022-10-16T15:36:47;16.80;91.10
61201;DHT22;47065;52.898;6.992;2022-10-16T15:39:18;16.80;91.00
61201;DHT22;47065;52.898;6.992;2022-10-16T15:41:45;16.70;91.20
61201;DHT22;47065;52.898;6.992;2022-10-16T15:44:16;16.60;91.40
61201;DHT22;47065;52.898;6.992;2022-10-16T15:46:42;16.60;91.80
61201;DHT22;47065;52.898;6.992;2022-10-16T15:49:08;16.50;92.00
61201;DHT22;47065;52.898;6.992;2022-10-16T15:51:38;16.40;92.30
61201;DHT22;47065;52.898;6.992;2022-10-16T15:54:04;16.40;92.70
61201;DHT22;47065;52.898;6.992;2022-10-16T15:56:29;16.20;93.10
61201;DHT22;47065;52.898;6.992;2022-10-16T15:59:01;16.20;93.50
61201;DHT22;47065;52.898;6.992;2022-10-16T16:01:27;16.10;93.90
61201;DHT22;47065;52.898;6.992;2022-10-16T16:03:55;16.00;94.30
61201;DHT22;47065;52.898;6.992;2022-10-16T16:06:22;15.90;94.80
61201;DHT22;47065;52.898;6.992;2022-10-16T16:08:50;15.90;95.50
61201;DHT22;47065;52.898;6.992;2022-10-16T16:11:16;15.80;96.10
61201;DHT22;47065;52.898;6.992;2022-10-16T16:13:42;15.60;96.90
61201;DHT22;47065;52.898;6.992;2022-10-16T16:16:10;15.50;97.80
61201;DHT22;47065;52.898;6.992;2022-10-16T16:18:37;15.50;98.80
61201;DHT22;47065;52.898;6.992;2022-10-16T16:21:03;15.40;99.90
61201;DHT22;47065;52.898;6.992;2022-10-16T16:23:29;15.30;99.90
61201;DHT22;47065;52.898;6.992;2022-10-16T16:26:05;15.20;99.90
61201;DHT22;47065;52.898;6.992;2022-10-16T16:28:31;15.10;99.90
61201;DHT22;47065;52.898;6.992;2022-10-16T16:31:00;15.00;99.90
61201;DHT22;47065;52.898;6.992;2022-10-16T16:33:25;14.90;99.90
61201;DHT22;47065;52.898;6.992;2022-10-16T16:35:56;14.90;99.90
61201;DHT22;47065;52.898;6.992;2022-10-16T16:38:22;14.80;99.90
61201;DHT22;47065;52.898;6.992;2022-10-16T16:40:48;14.70;99.90
61201;DHT22;47065;52.898;6.992;2022-10-16T16:43:13;14.70;99.90
61201;DHT22;47065;52.898;6.992;2022-10-16T16:45:39;14.60;99.90
61201;DHT22;47065;52.898;6.992;2022-10-16T16:48:04;14.50;99.90
61201;DHT22;47065;52.898;6.992;2022-10-16T16:50:35;14.50;99.90
61201;DHT22;47065;52.898;6.992;2022-10-16T16:53:01;14.40;99.90
61201;DHT22;47065;52.898;6.992;2022-10-16T16:55:27;14.30;99.90
61201;DHT22;47065;52.898;6.992;2022-10-16T16:57:52;14.20;99.90
61201;DHT22;47065;52.898;6.992;2022-10-16T17:00:18;14.20;99.90
61201;DHT22;47065;52.898;6.992;2022-10-16T17:02:43;14.10;99.90
61201;DHT22;47065;52.898;6.992;2022-10-16T17:05:13;14.10;99.90
61201;DHT22;47065;52.898;6.992;2022-10-16T17:07:38;14.10;99.90
61201;DHT22;47065;52.898;6.992;2022-10-16T17:10:07;14.00;99.90
61201;DHT22;47065;52.898;6.992;2022-10-16T17:12:32;13.90;99.90
61201;DHT22;47065;52.898;6.992;2022-10-16T17:14:58;13.90;99.90
61201;DHT22;47065;52.898;6.992;2022-10-16T17:17:24;13.80;99.90
61201;DHT22;47065;52.898;6.992;2022-10-16T17:19:50;13.80;99.90
61201;DHT22;47065;52.898;6.992;2022-10-16T17:22:16;13.70;99.90
61201;DHT22;47065;52.898;6.992;2022-10-16T17:24:43;13.60;99.90
61201;DHT22;47065;52.898;6.992;2022-10-16T17:27:09;13.60;99.90
61201;DHT22;47065;52.898;6.992;2022-10-16T17:29:36;13.50;99.90
61201;DHT22;47065;52.898;6.992;2022-10-16T17:32:03;13.50;99.90